Time;durP1;ratioP1;P1;durP2;ratioP2;P2;SDS_P1;SDS_P2;PMS_P1;PMS_P2;Temp;Humidity;BMP_temperature;BMP_pressure;BME280_temperature;BME280_humidity;BME280_pressure;Samples;Min_cycle;Max_cycle;Signal;HPM_P1;HPM_P2
2023/06/02 05:02:32;;;;;;;;;40.75;33.25;;;;;;;;5721925;22;11537;-71
2023/06/02 05:04:58;;;;;;;;;36.00;34.25;;;;;;;;6248459;22;12764;-69
2023/06/02 05:07:24;;;;;;;;;37.75;33.75;;;;;;;;6248900;22;8773;-74
2023/06/02 05:09:49;;;;;;;;;36.00;31.00;;;;;;;;6249081;22;8730;-72
2023/06/02 05:12:16;;;;;;;;;33.75;33.00;;;;;;;;6246695;22;8789;-73
2023/06/02 05:14:41;;;;;;;;;39.00;36.00;;;;;;;;6248542;22;8742;-73
2023/06/02 05:17:07;;;;;;;;;40.75;33.50;;;;;;;;6248326;22;12237;-74
2023/06/02 05:19:33;;;;;;;;;38.75;34.00;;;;;;;;6247885;22;8746;-73
2023/06/02 05:21:58;;;;;;;;;49.50;36.50;;;;;;;;6249814;22;8761;-73
2023/06/02 05:24:23;;;;;;;;;37.50;32.50;;;;;;;;6249876;22;11436;-73
2023/06/02 05:26:49;;;;;;;;;43.00;35.75;;;;;;;;6250221;22;8779;-73
2023/06/02 05:29:14;;;;;;;;;38.25;32.25;;;;;;;;6249871;22;8758;-71
2023/06/02 05:31:39;;;;;;;;;39.75;33.75;;;;;;;;6250906;22;8761;-70
2023/06/02 05:34:04;;;;;;;;;47.25;35.50;;;;;;;;6250890;22;8774;-72
2023/06/02 05:36:30;;;;;;;;;31.50;28.25;;;;;;;;6249204;22;8765;-70
2023/06/02 05:38:55;;;;;;;;;41.50;37.00;;;;;;;;6251421;22;8742;-73
2023/06/02 05:41:20;;;;;;;;;40.75;36.25;;;;;;;;6251519;22;8754;-73
2023/06/02 05:43:45;;;;;;;;;46.25;38.00;;;;;;;;6250865;22;8777;-72
2023/06/02 05:46:10;;;;;;;;;42.00;36.50;;;;;;;;6249446;22;9320;-72
2023/06/02 05:48:36;;;;;;;;;38.50;32.50;;;;;;;;6251846;22;8762;-76
2023/06/02 05:51:01;;;;;;;;;36.25;32.75;;;;;;;;6251796;22;8770;-72
2023/06/02 05:53:26;;;;;;;;;34.50;33.00;;;;;;;;6251457;22;8861;-72
2023/06/02 05:55:52;;;;;;;;;38.50;33.00;;;;;;;;6251216;22;8764;-73
2023/06/02 05:58:18;;;;;;;;;37.50;32.00;;;;;;;;6251113;22;8781;-74
2023/06/02 06:00:43;;;;;;;;;39.25;34.25;;;;;;;;6250773;22;8714;-74
2023/06/02 06:03:08;;;;;;;;;40.50;33.50;;;;;;;;6251103;22;11442;-75
2023/06/02 06:05:33;;;;;;;;;37.50;33.25;;;;;;;;6224189;22;8792;-75
2023/06/02 06:07:58;;;;;;;;;34.75;31.25;;;;;;;;6251327;22;8766;-80
2023/06/02 06:10:24;;;;;;;;;33.00;29.50;;;;;;;;6251761;22;8780;-75
2023/06/02 06:12:49;;;;;;;;;44.75;35.75;;;;;;;;6251361;22;9354;-74
2023/06/02 06:15:14;;;;;;;;;38.00;32.75;;;;;;;;6251185;22;8745;-75
2023/06/02 06:17:49;;;;;;;;;30.75;30.25;;;;;;;;6251304;22;8918;-73
2023/06/02 06:20:15;;;;;;;;;44.75;37.75;;;;;;;;6251374;22;8746;-78
2023/06/02 06:22:40;;;;;;;;;32.00;25.50;;;;;;;;6251129;22;11412;-71
2023/06/02 06:25:06;;;;;;;;;30.00;25.50;;;;;;;;6251278;22;11412;-72
2023/06/02 06:27:31;;;;;;;;;33.25;29.50;;;;;;;;6251158;22;8855;-71
2023/06/02 06:29:56;;;;;;;;;36.50;32.75;;;;;;;;6250870;22;8762;-72
2023/06/02 06:32:21;;;;;;;;;35.25;29.50;;;;;;;;6250437;22;8797;-70
2023/06/02 06:34:46;;;;;;;;;38.25;34.50;;;;;;;;6250680;22;8777;-72
2023/06/02 06:37:12;;;;;;;;;35.00;30.50;;;;;;;;6251099;22;8782;-72
2023/06/02 06:39:37;;;;;;;;;40.25;34.25;;;;;;;;6251189;22;8785;-72
2023/06/02 06:42:02;;;;;;;;;35.75;28.25;;;;;;;;6251274;22;8754;-72
2023/06/02 06:44:27;;;;;;;;;32.50;31.00;;;;;;;;6244910;22;8753;-71
2023/06/02 06:46:52;;;;;;;;;36.25;34.75;;;;;;;;6240450;22;8843;-71
2023/06/02 06:49:18;;;;;;;;;37.25;33.25;;;;;;;;6248862;22;8779;-69
2023/06/02 06:51:43;;;;;;;;;46.75;36.00;;;;;;;;6218504;22;8766;-69
2023/06/02 06:54:08;;;;;;;;;37.25;32.00;;;;;;;;6249109;22;8758;-69
2023/06/02 06:56:35;;;;;;;;;30.50;27.75;;;;;;;;6248238;22;8784;-69
2023/06/02 06:59:00;;;;;;;;;47.50;34.00;;;;;;;;6249807;22;9498;-69
2023/06/02 07:01:26;;;;;;;;;34.75;30.25;;;;;;;;6249479;22;11530;-69
2023/06/02 07:03:51;;;;;;;;;27.75;27.25;;;;;;;;6251032;22;8750;-70
2023/06/02 07:06:16;;;;;;;;;40.50;33.00;;;;;;;;6250735;22;8762;-69
2023/06/02 07:08:41;;;;;;;;;22.75;20.00;;;;;;;;6222385;22;8796;-69
2023/06/02 07:11:06;;;;;;;;;31.75;26.75;;;;;;;;6244435;22;9649;-70
2023/06/02 07:13:32;;;;;;;;;35.00;33.25;;;;;;;;6250518;22;8742;-70
2023/06/02 07:15:57;;;;;;;;;39.25;32.25;;;;;;;;6250635;22;8746;-69
2023/06/02 07:18:22;;;;;;;;;41.75;34.75;;;;;;;;6250014;22;8777;-75
2023/06/02 07:20:47;;;;;;;;;20.25;16.75;;;;;;;;6250935;22;8750;-71
2023/06/02 07:23:12;;;;;;;;;33.50;32.50;;;;;;;;6250415;22;9525;-69
2023/06/02 07:25:38;;;;;;;;;34.50;31.50;;;;;;;;6250196;22;9475;-69
2023/06/02 07:28:03;;;;;;;;;11.25;8.25;;;;;;;;6249976;22;8831;-69
2023/06/02 07:30:28;;;;;;;;;40.25;33.75;;;;;;;;6249331;22;8746;-69
2023/06/02 07:32:54;;;;;;;;;35.75;31.75;;;;;;;;6223573;22;8758;-69
2023/06/02 07:35:19;;;;;;;;;21.25;17.00;;;;;;;;6223351;22;8742;-69
2023/06/02 07:37:44;;;;;;;;;26.25;21.25;;;;;;;;6250515;22;8804;-69
2023/06/02 07:40:09;;;;;;;;;32.00;28.25;;;;;;;;6250324;22;8846;-69
2023/06/02 07:42:35;;;;;;;;;29.50;26.75;;;;;;;;6250430;22;8796;-69
2023/06/02 07:45:00;;;;;;;;;29.25;27.75;;;;;;;;6250723;22;8750;-69
2023/06/02 07:47:25;;;;;;;;;30.50;26.50;;;;;;;;6250619;22;8781;-69
2023/06/02 07:49:50;;;;;;;;;15.00;12.00;;;;;;;;6250731;22;8856;-69
2023/06/02 07:52:15;;;;;;;;;11.00;10.25;;;;;;;;6249796;22;8780;-69
2023/06/02 07:54:41;;;;;;;;;31.00;29.25;;;;;;;;6250519;22;9605;-69
2023/06/02 07:57:06;;;;;;;;;20.00;19.75;;;;;;;;6250163;22;8789;-69
2023/06/02 07:59:31;;;;;;;;;30.75;28.00;;;;;;;;6248731;22;8773;-69
2023/06/02 08:01:56;;;;;;;;;23.75;23.75;;;;;;;;6250549;22;9567;-70
2023/06/02 08:04:25;;;;;;;;;34.50;30.25;;;;;;;;6250330;22;8754;-70
2023/06/02 08:06:51;;;;;;;;;31.75;31.00;;;;;;;;6250238;22;8742;-69
2023/06/02 08:09:16;;;;;;;;;29.00;27.50;;;;;;;;6250109;22;11487;-70
2023/06/02 08:11:41;;;;;;;;;28.00;26.25;;;;;;;;6250483;22;8726;-70
2023/06/02 08:14:06;;;;;;;;;29.50;25.00;;;;;;;;6250781;22;8860;-70
2023/06/02 08:16:31;;;;;;;;;31.25;28.25;;;;;;;;6250541;22;8800;-70
2023/06/02 08:18:56;;;;;;;;;26.00;24.25;;;;;;;;6250242;22;8820;-70
2023/06/02 08:21:22;;;;;;;;;36.00;32.00;;;;;;;;6250751;22;8758;-69
2023/06/02 08:23:47;;;;;;;;;34.50;28.25;;;;;;;;6250620;22;9433;-70
2023/06/02 08:26:12;;;;;;;;;29.50;23.00;;;;;;;;6248106;22;8750;-72
2023/06/02 08:28:38;;;;;;;;;61.75;47.25;;;;;;;;6249929;22;8804;-70
2023/06/02 08:31:04;;;;;;;;;32.75;30.25;;;;;;;;6250427;22;8723;-70
2023/06/02 08:33:33;;;;;;;;;25.25;22.25;;;;;;;;6250527;22;11473;-71
2023/06/02 08:35:59;;;;;;;;;30.25;29.00;;;;;;;;6247736;22;8730;-68
2023/06/02 08:38:25;;;;;;;;;23.75;18.25;;;;;;;;6248404;22;12158;-76
2023/06/02 08:40:51;;;;;;;;;26.50;22.25;;;;;;;;6249913;22;11435;-74
2023/06/02 08:43:16;;;;;;;;;33.50;30.25;;;;;;;;6249920;22;12048;-78
2023/06/02 08:45:46;;;;;;;;;30.75;28.50;;;;;;;;6253752;22;8860;-86
2023/06/02 08:48:15;;;;;;;;;22.50;20.50;;;;;;;;6252326;22;8746;-80
2023/06/02 08:50:42;;;;;;;;;29.50;29.50;;;;;;;;6249972;22;11492;-81
2023/06/02 08:53:10;;;;;;;;;40.75;34.25;;;;;;;;6250089;22;11427;-78
2023/06/02 08:55:39;;;;;;;;;30.00;28.50;;;;;;;;6249202;22;11393;-80
2023/06/02 08:58:04;;;;;;;;;30.00;28.75;;;;;;;;6250208;22;11460;-83
2023/06/02 09:00:30;;;;;;;;;29.75;29.75;;;;;;;;6249937;22;11477;-81
2023/06/02 09:02:55;;;;;;;;;38.50;33.25;;;;;;;;6248747;22;8800;-80
2023/06/02 09:05:22;;;;;;;;;29.25;28.00;;;;;;;;6251818;22;8872;-80
2023/06/02 09:07:47;;;;;;;;;30.25;28.50;;;;;;;;6251021;22;8746;-69
2023/06/02 09:10:29;;;;;;;;;33.00;31.00;;;;;;;;6223324;22;11685;-71
2023/06/02 09:12:55;;;;;;;;;36.75;30.00;;;;;;;;6251049;22;8742;-74
2023/06/02 09:15:20;;;;;;;;;30.75;27.00;;;;;;;;6250825;22;12146;-73
2023/06/02 09:17:45;;;;;;;;;25.50;23.00;;;;;;;;6251424;22;8778;-74
2023/06/02 09:20:11;;;;;;;;;34.50;31.00;;;;;;;;6251057;22;8754;-74
2023/06/02 09:22:53;;;;;;;;;28.50;28.50;;;;;;;;6250497;22;8781;-72
2023/06/02 09:25:23;;;;;;;;;30.75;26.50;;;;;;;;6251323;22;8726;-74
2023/06/02 09:27:52;;;;;;;;;24.75;21.00;;;;;;;;6251139;22;11400;-77
2023/06/02 09:30:17;;;;;;;;;30.75;28.25;;;;;;;;6250801;22;11403;-77
2023/06/02 09:32:51;;;;;;;;;27.25;26.00;;;;;;;;6251265;22;11447;-76
2023/06/02 09:35:31;;;;;;;;;26.00;24.50;;;;;;;;6251312;22;8735;-76
2023/06/02 09:37:57;;;;;;;;;30.00;26.75;;;;;;;;6250578;22;12375;-75
2023/06/02 09:40:27;;;;;;;;;29.75;28.75;;;;;;;;6250628;22;11425;-75
2023/06/02 09:42:52;;;;;;;;;29.50;24.50;;;;;;;;6250962;22;8730;-77
2023/06/02 09:45:18;;;;;;;;;29.50;26.75;;;;;;;;6250718;22;11466;-77
2023/06/02 09:47:43;;;;;;;;;28.00;25.25;;;;;;;;6251020;22;8792;-78
2023/06/02 09:50:09;;;;;;;;;32.75;26.50;;;;;;;;6250725;22;8734;-77
2023/06/02 09:52:34;;;;;;;;;18.50;17.25;;;;;;;;6242872;22;8766;-76
2023/06/02 09:55:00;;;;;;;;;23.25;21.25;;;;;;;;6249833;22;8786;-76
2023/06/02 09:57:25;;;;;;;;;22.00;21.00;;;;;;;;6249074;22;8812;-75
2023/06/02 09:59:51;;;;;;;;;23.25;23.00;;;;;;;;6249442;22;8742;-77
2023/06/02 10:02:16;;;;;;;;;29.50;23.50;;;;;;;;6247712;22;8786;-77
2023/06/02 10:04:41;;;;;;;;;25.50;22.00;;;;;;;;6251168;22;8750;-76
2023/06/02 10:07:22;;;;;;;;;31.75;27.00;;;;;;;;6250005;22;8897;-76
2023/06/02 10:10:05;;;;;;;;;26.25;24.25;;;;;;;;6250409;22;8748;-77
2023/06/02 10:12:43;;;;;;;;;14.50;13.00;;;;;;;;6250161;22;11450;-76
2023/06/02 10:15:27;;;;;;;;;35.50;29.50;;;;;;;;6250223;22;11378;-76
2023/06/02 10:18:02;;;;;;;;;25.00;22.25;;;;;;;;6249603;22;11443;-75
2023/06/02 10:20:40;;;;;;;;;26.00;25.25;;;;;;;;6249945;22;12307;-75
2023/06/02 10:23:20;;;;;;;;;27.25;25.25;;;;;;;;6249648;22;11409;-78
2023/06/02 10:26:04;;;;;;;;;33.00;31.25;;;;;;;;6251149;22;11453;-74
2023/06/02 10:28:30;;;;;;;;;28.25;28.25;;;;;;;;6249803;22;11507;-74
2023/06/02 10:31:05;;;;;;;;;32.00;29.25;;;;;;;;6248938;22;12179;-80
2023/06/02 10:33:40;;;;;;;;;21.75;21.50;;;;;;;;6246886;22;8730;-64
2023/06/02 10:36:07;;;;;;;;;21.00;18.50;;;;;;;;6250124;22;11541;-65
2023/06/02 10:38:33;;;;;;;;;20.75;20.25;;;;;;;;6250204;22;11507;-67
2023/06/02 10:40:58;;;;;;;;;19.25;17.25;;;;;;;;6250531;22;8757;-74
2023/06/02 10:43:24;;;;;;;;;29.00;29.00;;;;;;;;6250527;22;8750;-74
2023/06/02 10:45:49;;;;;;;;;33.25;28.75;;;;;;;;6250553;22;8765;-72
2023/06/02 10:48:33;;;;;;;;;23.75;21.50;;;;;;;;6250700;22;8757;-85
2023/06/02 10:50:59;;;;;;;;;23.50;23.50;;;;;;;;6249950;22;8737;-75
2023/06/02 10:53:24;;;;;;;;;22.25;21.75;;;;;;;;6248399;22;11416;-74
2023/06/02 10:55:49;;;;;;;;;18.75;17.00;;;;;;;;6249859;22;8856;-77
2023/06/02 10:58:15;;;;;;;;;24.75;22.00;;;;;;;;6250701;22;8868;-76
2023/06/02 11:00:43;;;;;;;;;23.50;21.00;;;;;;;;6249751;22;8746;-77
2023/06/02 11:03:08;;;;;;;;;23.75;20.75;;;;;;;;6250572;22;8731;-77
2023/06/02 11:05:34;;;;;;;;;21.80;20.00;;;;;;;;6250628;22;11459;-78
2023/06/02 11:08:11;;;;;;;;;21.50;19.00;;;;;;;;6251677;22;8742;-79
2023/06/02 11:10:48;;;;;;;;;23.25;22.75;;;;;;;;6251894;22;8741;-81
2023/06/02 11:13:14;;;;;;;;;21.50;17.50;;;;;;;;6249807;22;11429;-74
2023/06/02 11:15:42;;;;;;;;;18.50;17.75;;;;;;;;6249873;22;11435;-68
2023/06/02 11:18:31;;;;;;;;;18.75;17.75;;;;;;;;6250275;22;8745;-68
2023/06/02 11:20:56;;;;;;;;;21.50;19.25;;;;;;;;6247551;22;11437;-68
2023/06/02 11:23:21;;;;;;;;;25.25;22.00;;;;;;;;6250167;22;11441;-68
2023/06/02 11:25:47;;;;;;;;;21.50;21.00;;;;;;;;6248338;22;9145;-68
2023/06/02 11:28:22;;;;;;;;;27.50;24.25;;;;;;;;6250107;22;9467;-71
2023/06/02 11:31:09;;;;;;;;;23.00;23.00;;;;;;;;6250544;22;8722;-73
2023/06/02 11:33:38;;;;;;;;;24.50;22.50;;;;;;;;6249876;22;11340;-71
2023/06/02 11:36:04;;;;;;;;;24.50;21.75;;;;;;;;6249769;22;11329;-70
2023/06/02 11:38:32;;;;;;;;;23.25;21.50;;;;;;;;6250557;22;12272;-71
2023/06/02 11:41:12;;;;;;;;;18.50;15.25;;;;;;;;6250040;22;8730;-70
2023/06/02 11:43:38;;;;;;;;;18.75;18.25;;;;;;;;6223013;22;11353;-67
2023/06/02 11:46:13;;;;;;;;;21.25;17.00;;;;;;;;6249900;22;11456;-69
2023/06/02 11:48:40;;;;;;;;;28.25;25.50;;;;;;;;6250378;22;8706;-78
2023/06/02 11:51:05;;;;;;;;;19.00;17.25;;;;;;;;6249975;22;11375;-81
2023/06/02 11:53:31;;;;;;;;;25.00;23.00;;;;;;;;6250621;22;11362;-83
2023/06/02 11:55:56;;;;;;;;;41.25;34.25;;;;;;;;6252150;22;8741;-81
2023/06/02 11:58:22;;;;;;;;;21.50;21.00;;;;;;;;6249874;22;8854;-86
2023/06/02 12:00:48;;;;;;;;;20.50;16.25;;;;;;;;6250757;22;8727;-80
2023/06/02 12:03:14;;;;;;;;;21.00;18.75;;;;;;;;6249926;22;11415;-77
2023/06/02 12:05:43;;;;;;;;;15.50;11.75;;;;;;;;6250265;22;8758;-75
2023/06/02 12:08:10;;;;;;;;;18.75;17.25;;;;;;;;6249932;22;8796;-73
2023/06/02 12:10:35;;;;;;;;;15.75;15.75;;;;;;;;6250114;22;11376;-74
2023/06/02 12:13:00;;;;;;;;;16.25;14.75;;;;;;;;6249821;22;11478;-74
2023/06/02 12:15:33;;;;;;;;;20.00;20.00;;;;;;;;6250505;22;8889;-78
2023/06/02 12:17:58;;;;;;;;;16.00;14.75;;;;;;;;6249917;22;8820;-77
2023/06/02 12:20:33;;;;;;;;;18.25;15.75;;;;;;;;6222995;22;11367;-82
2023/06/02 12:22:58;;;;;;;;;21.25;17.25;;;;;;;;6250702;22;8738;-81
2023/06/02 12:25:23;;;;;;;;;19.00;16.50;;;;;;;;6250769;22;11404;-82
2023/06/02 12:27:50;;;;;;;;;20.00;18.50;;;;;;;;6251446;22;8843;-92
2023/06/02 12:30:15;;;;;;;;;22.00;15.50;;;;;;;;6253112;22;8731;-86
2023/06/02 12:32:40;;;;;;;;;14.25;9.75;;;;;;;;6255184;22;11429;-86
2023/06/02 12:35:06;;;;;;;;;15.25;15.00;;;;;;;;6250800;22;8757;-88
2023/06/02 12:37:31;;;;;;;;;16.50;15.50;;;;;;;;6251899;22;8765;-85
2023/06/02 12:39:56;;;;;;;;;19.75;16.50;;;;;;;;6224548;22;9316;-84
2023/06/02 12:42:21;;;;;;;;;17.75;16.75;;;;;;;;6252490;22;8844;-83
2023/06/02 12:44:48;;;;;;;;;19.00;13.50;;;;;;;;6251429;22;8766;-81
2023/06/02 12:47:14;;;;;;;;;19.00;19.00;;;;;;;;6251044;22;8734;-78
2023/06/02 12:49:39;;;;;;;;;18.50;18.00;;;;;;;;6251554;22;11402;-80
2023/06/02 12:52:05;;;;;;;;;21.25;19.25;;;;;;;;6249435;22;9161;-78
2023/06/02 12:54:30;;;;;;;;;17.25;14.75;;;;;;;;6251267;22;8758;-79
2023/06/02 12:56:55;;;;;;;;;20.25;19.25;;;;;;;;6251690;22;9479;-80
2023/06/02 12:59:20;;;;;;;;;24.75;23.75;;;;;;;;6250875;22;8766;-79
2023/06/02 13:01:46;;;;;;;;;12.50;12.50;;;;;;;;6251197;22;8770;-80
2023/06/02 13:04:11;;;;;;;;;24.50;21.50;;;;;;;;6251313;22;8742;-79
2023/06/02 13:06:36;;;;;;;;;23.00;20.75;;;;;;;;6252036;22;8766;-77
2023/06/02 13:09:02;;;;;;;;;20.50;19.50;;;;;;;;6251687;22;8765;-78
2023/06/02 13:11:28;;;;;;;;;20.00;16.50;;;;;;;;6251019;22;8719;-77
2023/06/02 13:13:54;;;;;;;;;19.00;16.50;;;;;;;;6251296;22;11413;-78
2023/06/02 13:16:19;;;;;;;;;20.25;19.50;;;;;;;;6251346;22;8781;-79
2023/06/02 13:18:46;;;;;;;;;13.75;13.75;;;;;;;;6251395;22;8805;-79
2023/06/02 13:21:12;;;;;;;;;11.50;11.50;;;;;;;;6250334;22;8786;-76
2023/06/02 13:23:37;;;;;;;;;16.00;16.00;;;;;;;;6248957;22;11358;-73
2023/06/02 13:26:02;;;;;;;;;19.75;19.75;;;;;;;;6251091;22;8746;-76
2023/06/02 13:28:30;;;;;;;;;17.25;16.00;;;;;;;;6250232;22;9267;-78
2023/06/02 13:30:55;;;;;;;;;20.25;17.25;;;;;;;;6249795;22;8734;-76
2023/06/02 13:33:20;;;;;;;;;15.50;15.50;;;;;;;;6250003;22;11388;-75
2023/06/02 13:35:45;;;;;;;;;14.50;14.50;;;;;;;;6250371;22;9531;-75
2023/06/02 13:38:10;;;;;;;;;22.00;19.25;;;;;;;;6250307;22;8769;-76
2023/06/02 13:40:36;;;;;;;;;20.25;20.25;;;;;;;;6251808;22;8750;-75
2023/06/02 13:43:01;;;;;;;;;18.25;17.25;;;;;;;;6250945;22;8790;-73
2023/06/02 13:45:26;;;;;;;;;15.75;14.25;;;;;;;;6250858;22;8848;-75
2023/06/02 13:47:52;;;;;;;;;16.50;15.25;;;;;;;;6251344;22;8761;-76
2023/06/02 13:50:18;;;;;;;;;12.25;9.75;;;;;;;;6250487;22;8753;-76
2023/06/02 13:52:43;;;;;;;;;18.75;17.50;;;;;;;;6224180;22;8734;-75
2023/06/02 13:55:08;;;;;;;;;20.75;17.00;;;;;;;;6251109;22;8769;-74
2023/06/02 13:57:35;;;;;;;;;22.00;19.00;;;;;;;;6250179;22;8793;-73
2023/06/02 14:00:00;;;;;;;;;19.50;18.50;;;;;;;;6251955;22;8836;-82
2023/06/02 14:02:26;;;;;;;;;22.00;18.50;;;;;;;;6250242;22;11509;-75
2023/06/02 14:04:51;;;;;;;;;18.75;17.50;;;;;;;;6251371;22;8749;-72
2023/06/02 14:07:16;;;;;;;;;17.50;14.00;;;;;;;;6250753;22;11178;-72
2023/06/02 14:09:42;;;;;;;;;10.50;9.25;;;;;;;;6251518;22;8824;-71
2023/06/02 14:12:07;;;;;;;;;11.00;11.00;;;;;;;;6251159;22;8855;-71
2023/06/02 14:14:32;;;;;;;;;20.25;19.00;;;;;;;;6250689;22;8761;-71
2023/06/02 14:16:58;;;;;;;;;21.25;17.25;;;;;;;;6250907;22;8801;-72
2023/06/02 14:19:23;;;;;;;;;18.25;16.50;;;;;;;;6251439;22;8753;-71
2023/06/02 14:21:48;;;;;;;;;16.50;14.25;;;;;;;;6251104;22;9706;-72
2023/06/02 14:24:13;;;;;;;;;17.00;16.00;;;;;;;;6251129;22;8765;-72
2023/06/02 14:26:39;;;;;;;;;16.75;15.75;;;;;;;;6251220;22;8879;-72
2023/06/02 14:29:04;;;;;;;;;17.75;14.75;;;;;;;;6251042;22;8800;-72
2023/06/02 14:31:30;;;;;;;;;19.25;17.25;;;;;;;;6251048;22;8766;-71
2023/06/02 14:33:55;;;;;;;;;15.75;14.50;;;;;;;;6251006;22;8750;-72
2023/06/02 14:36:20;;;;;;;;;20.75;18.75;;;;;;;;6251409;22;8777;-72
2023/06/02 14:38:46;;;;;;;;;17.00;15.50;;;;;;;;6250717;22;8831;-71
2023/06/02 14:41:11;;;;;;;;;14.75;14.00;;;;;;;;6251120;22;8761;-72
2023/06/02 14:43:36;;;;;;;;;19.50;17.25;;;;;;;;6250932;22;8750;-71
2023/06/02 14:46:06;;;;;;;;;10.75;10.75;;;;;;;;6250502;22;8770;-71
2023/06/02 14:48:31;;;;;;;;;16.75;12.25;;;;;;;;6250576;22;8726;-71
2023/06/02 14:50:56;;;;;;;;;18.25;15.25;;;;;;;;6250842;22;11372;-71
2023/06/02 14:53:21;;;;;;;;;18.00;18.00;;;;;;;;6251086;22;8775;-71
2023/06/02 14:55:47;;;;;;;;;19.50;16.50;;;;;;;;6250462;22;8781;-71
2023/06/02 14:58:13;;;;;;;;;10.50;10.25;;;;;;;;6250743;22;8815;-72
2023/06/02 15:00:39;;;;;;;;;8.50;8.25;;;;;;;;6250439;22;8750;-72
2023/06/02 15:03:04;;;;;;;;;25.25;19.25;;;;;;;;6250457;22;8750;-73
2023/06/02 15:05:29;;;;;;;;;18.50;18.50;;;;;;;;6251254;22;12336;-71
2023/06/02 15:08:01;;;;;;;;;17.75;15.00;;;;;;;;6250284;22;8761;-71
2023/06/02 15:10:26;;;;;;;;;21.25;19.00;;;;;;;;6224388;22;8731;-71
2023/06/02 15:12:51;;;;;;;;;18.50;16.75;;;;;;;;6250919;22;12116;-71
2023/06/02 15:15:16;;;;;;;;;24.25;18.75;;;;;;;;6251206;22;8761;-71
2023/06/02 15:17:42;;;;;;;;;21.50;20.50;;;;;;;;6223430;22;8828;-71
2023/06/02 15:20:08;;;;;;;;;16.25;15.75;;;;;;;;6250796;22;8745;-71
2023/06/02 15:22:33;;;;;;;;;22.75;20.25;;;;;;;;6249924;22;11372;-71
2023/06/02 15:24:58;;;;;;;;;19.25;18.25;;;;;;;;6250630;22;8757;-71
2023/06/02 15:27:24;;;;;;;;;19.50;12.50;;;;;;;;6250642;22;8812;-71
2023/06/02 15:29:49;;;;;;;;;18.25;17.00;;;;;;;;6248576;22;8781;-72
2023/06/02 15:32:14;;;;;;;;;25.00;22.50;;;;;;;;6250901;22;8784;-71
2023/06/02 15:34:40;;;;;;;;;20.00;19.00;;;;;;;;6223107;22;8762;-71
2023/06/02 15:37:05;;;;;;;;;20.75;19.00;;;;;;;;6250652;22;9393;-71
2023/06/02 15:39:30;;;;;;;;;18.25;16.25;;;;;;;;6250569;22;8762;-71
2023/06/02 15:41:55;;;;;;;;;16.00;15.75;;;;;;;;6250698;22;8754;-72
2023/06/02 15:44:20;;;;;;;;;17.00;16.75;;;;;;;;6249943;22;8754;-73
2023/06/02 15:46:45;;;;;;;;;19.00;18.50;;;;;;;;6250571;22;8796;-76
2023/06/02 15:49:11;;;;;;;;;14.00;12.00;;;;;;;;6249809;22;9666;-70
2023/06/02 15:51:36;;;;;;;;;14.50;13.50;;;;;;;;6244981;22;8777;-76
2023/06/02 15:54:01;;;;;;;;;20.50;15.25;;;;;;;;6249850;22;8750;-72
2023/06/02 15:56:27;;;;;;;;;10.50;10.50;;;;;;;;6249680;22;8766;-72
2023/06/02 15:58:52;;;;;;;;;16.75;13.25;;;;;;;;6249753;22;9545;-72
2023/06/02 16:01:18;;;;;;;;;19.00;16.00;;;;;;;;6249760;22;8856;-73
2023/06/02 16:03:43;;;;;;;;;11.75;10.75;;;;;;;;6250433;22;8776;-71
2023/06/02 16:06:08;;;;;;;;;15.25;13.50;;;;;;;;6250132;22;8858;-71
2023/06/02 16:08:35;;;;;;;;;11.00;11.00;;;;;;;;6249509;22;8749;-72
2023/06/02 16:11:01;;;;;;;;;12.50;10.00;;;;;;;;6249885;22;8802;-71
2023/06/02 16:13:26;;;;;;;;;14.00;12.25;;;;;;;;6249177;22;10851;-72
2023/06/02 16:15:55;;;;;;;;;22.00;17.50;;;;;;;;6250499;22;8869;-73
2023/06/02 16:18:20;;;;;;;;;14.25;13.50;;;;;;;;6249573;22;8758;-75
2023/06/02 16:20:46;;;;;;;;;12.75;10.75;;;;;;;;6249910;22;10960;-73
2023/06/02 16:23:11;;;;;;;;;15.00;13.75;;;;;;;;6250188;22;8746;-74
2023/06/02 16:25:36;;;;;;;;;13.25;11.00;;;;;;;;6249873;22;8783;-75
2023/06/02 16:28:01;;;;;;;;;13.50;11.25;;;;;;;;6250138;22;8746;-76
2023/06/02 16:30:26;;;;;;;;;10.25;10.25;;;;;;;;6249637;22;8773;-75
2023/06/02 16:32:53;;;;;;;;;15.25;12.75;;;;;;;;6250301;22;8776;-74
2023/06/02 16:35:18;;;;;;;;;14.00;11.50;;;;;;;;6250126;22;8718;-78
2023/06/02 16:37:43;;;;;;;;;12.00;11.00;;;;;;;;6249583;22;10971;-76
2023/06/02 16:40:08;;;;;;;;;14.00;12.75;;;;;;;;6249281;22;8742;-78
2023/06/02 16:42:34;;;;;;;;;16.75;15.75;;;;;;;;6222796;22;8738;-75
2023/06/02 16:44:59;;;;;;;;;16.00;15.50;;;;;;;;6251909;22;9514;-76
2023/06/02 16:47:24;;;;;;;;;17.50;15.75;;;;;;;;6223772;22;9248;-78
2023/06/02 16:49:50;;;;;;;;;13.25;13.25;;;;;;;;6248373;22;8778;-78
2023/06/02 16:52:15;;;;;;;;;12.75;12.75;;;;;;;;6250419;22;8770;-83
2023/06/02 16:54:40;;;;;;;;;17.25;13.50;;;;;;;;6251583;22;8757;-77
2023/06/02 16:57:07;;;;;;;;;14.50;14.00;;;;;;;;6250099;22;8779;-77
2023/06/02 16:59:32;;;;;;;;;14.25;14.00;;;;;;;;6249200;22;8730;-80
2023/06/02 17:01:57;;;;;;;;;16.50;16.25;;;;;;;;6249567;22;11187;-80
2023/06/02 17:04:22;;;;;;;;;17.25;15.50;;;;;;;;6250069;22;8821;-81
2023/06/02 17:06:47;;;;;;;;;13.50;13.25;;;;;;;;6249509;22;8746;-79
2023/06/02 17:09:16;;;;;;;;;16.75;13.75;;;;;;;;6249975;22;8750;-82
2023/06/02 17:11:41;;;;;;;;;11.50;7.75;;;;;;;;6250422;22;9506;-83
2023/06/02 17:14:07;;;;;;;;;7.50;6.75;;;;;;;;6247688;22;11153;-85
2023/06/02 17:16:32;;;;;;;;;13.25;12.75;;;;;;;;6249939;22;8734;-79
2023/06/02 17:18:57;;;;;;;;;11.50;11.50;;;;;;;;6250034;22;8855;-78
2023/06/02 17:21:22;;;;;;;;;15.00;10.50;;;;;;;;6248996;22;8742;-78
2023/06/02 17:23:48;;;;;;;;;12.25;9.75;;;;;;;;6250030;22;8745;-81
2023/06/02 17:26:13;;;;;;;;;13.75;12.75;;;;;;;;6250595;22;8734;-78
2023/06/02 17:28:38;;;;;;;;;11.00;8.75;;;;;;;;6251657;22;8768;-82
2023/06/02 17:31:04;;;;;;;;;14.00;12.75;;;;;;;;6251257;22;8738;-79
2023/06/02 17:33:29;;;;;;;;;10.00;9.25;;;;;;;;6251770;22;8699;-78
2023/06/02 17:35:55;;;;;;;;;13.00;10.50;;;;;;;;6251127;22;11191;-77
2023/06/02 17:38:20;;;;;;;;;12.75;11.75;;;;;;;;6251323;22;8754;-79
2023/06/02 17:40:45;;;;;;;;;12.25;10.75;;;;;;;;6251423;22;8761;-78
2023/06/02 17:43:10;;;;;;;;;10.75;9.75;;;;;;;;6251148;22;8738;-77
2023/06/02 17:45:36;;;;;;;;;13.00;13.00;;;;;;;;6251030;22;8740;-78
2023/06/02 17:48:01;;;;;;;;;13.50;12.50;;;;;;;;6251371;22;9495;-78
2023/06/02 17:50:26;;;;;;;;;12.00;10.50;;;;;;;;6250456;22;8820;-77
2023/06/02 17:52:52;;;;;;;;;14.50;14.50;;;;;;;;6250588;22;8821;-74
2023/06/02 17:55:17;;;;;;;;;13.25;11.25;;;;;;;;6250809;22;9983;-76
2023/06/02 17:57:43;;;;;;;;;13.50;12.75;;;;;;;;6251002;22;9495;-76
2023/06/02 18:00:09;;;;;;;;;14.25;12.25;;;;;;;;6251251;22;8764;-78
2023/06/02 18:02:34;;;;;;;;;11.25;11.00;;;;;;;;6250905;22;8746;-77
2023/06/02 18:05:00;;;;;;;;;21.50;15.50;;;;;;;;6251144;22;11485;-75
2023/06/02 18:07:26;;;;;;;;;15.00;13.75;;;;;;;;6223859;22;8875;-81
2023/06/02 18:09:51;;;;;;;;;16.50;15.50;;;;;;;;6251024;22;8718;-71
2023/06/02 18:12:16;;;;;;;;;14.50;13.25;;;;;;;;6251085;22;11384;-71
2023/06/02 18:14:42;;;;;;;;;22.00;14.75;;;;;;;;6251349;22;8829;-72
2023/06/02 18:17:07;;;;;;;;;19.75;15.75;;;;;;;;6251183;22;8741;-70
2023/06/02 18:19:33;;;;;;;;;16.50;16.50;;;;;;;;6251119;22;9549;-74
2023/06/02 18:21:59;;;;;;;;;17.75;17.00;;;;;;;;6250714;22;8765;-72
2023/06/02 18:24:24;;;;;;;;;18.00;16.75;;;;;;;;6250728;22;11346;-76
2023/06/02 18:26:49;;;;;;;;;19.50;16.50;;;;;;;;6251033;22;8766;-72
2023/06/02 18:29:14;;;;;;;;;17.50;17.50;;;;;;;;6249123;22;8828;-72
2023/06/02 18:31:40;;;;;;;;;15.75;15.00;;;;;;;;6251044;22;9507;-73
2023/06/02 18:34:05;;;;;;;;;18.75;16.25;;;;;;;;6251189;22;8746;-75
2023/06/02 18:36:30;;;;;;;;;9.25;9.25;;;;;;;;6251040;22;8754;-79
2023/06/02 18:38:55;;;;;;;;;15.50;13.75;;;;;;;;6250945;22;8750;-74
2023/06/02 18:41:22;;;;;;;;;13.50;12.00;;;;;;;;6250621;22;8944;-76
2023/06/02 18:43:47;;;;;;;;;15.75;14.25;;;;;;;;6251142;22;8711;-76
2023/06/02 18:46:12;;;;;;;;;15.50;14.75;;;;;;;;6250288;22;11354;-76
2023/06/02 18:48:37;;;;;;;;;11.50;6.75;;;;;;;;6251121;22;8730;-75
2023/06/02 18:51:02;;;;;;;;;15.25;13.75;;;;;;;;6250942;22;8758;-76
2023/06/02 18:53:28;;;;;;;;;16.50;14.75;;;;;;;;6250566;22;8868;-75
2023/06/02 18:55:53;;;;;;;;;14.50;13.25;;;;;;;;6250976;22;9506;-74
2023/06/02 18:58:18;;;;;;;;;16.00;14.50;;;;;;;;6250908;22;8823;-73
2023/06/02 19:00:44;;;;;;;;;12.75;12.75;;;;;;;;6251216;22;8805;-78
2023/06/02 19:03:09;;;;;;;;;14.25;13.50;;;;;;;;6250212;22;8768;-73
2023/06/02 19:05:34;;;;;;;;;14.75;14.75;;;;;;;;6251355;22;8816;-77
2023/06/02 19:07:59;;;;;;;;;13.00;13.00;;;;;;;;6251733;22;8824;-77
2023/06/02 19:10:25;;;;;;;;;17.00;14.25;;;;;;;;6253714;22;8762;-77
2023/06/02 19:12:50;;;;;;;;;17.75;15.75;;;;;;;;6223573;22;8852;-72
2023/06/02 19:15:16;;;;;;;;;14.00;12.00;;;;;;;;6251152;22;8742;-70
2023/06/02 19:17:41;;;;;;;;;17.00;14.25;;;;;;;;6250107;22;8734;-69
2023/06/02 19:20:07;;;;;;;;;16.00;14.00;;;;;;;;6250843;22;11392;-70
2023/06/02 19:22:33;;;;;;;;;18.75;16.25;;;;;;;;6250023;22;8738;-69
2023/06/02 19:24:58;;;;;;;;;15.50;13.50;;;;;;;;6248950;22;9514;-69